createdAt,value
2017-01-09T00:00:49.992Z,0
2017-01-09T00:01:50.595Z,0
2017-01-09T00:02:50.502Z,0
2017-01-09T00:03:50.160Z,0
2017-01-09T00:04:50.904Z,0
2017-01-09T00:05:50.419Z,0
2017-01-09T00:06:50.473Z,0
2017-01-09T00:07:50.084Z,0
2017-01-09T00:08:50.144Z,0
2017-01-09T00:09:50.440Z,0
2017-01-09T00:10:50.106Z,0
2017-01-09T00:11:50.488Z,0
2017-01-09T00:12:50.515Z,0
2017-01-09T00:13:50.125Z,0
2017-01-09T00:14:50.133Z,0
2017-01-09T00:15:50.213Z,0
2017-01-09T00:16:51.246Z,0
2017-01-09T00:17:50.204Z,0
2017-01-09T00:18:50.605Z,0
2017-01-09T00:19:49.824Z,0
2017-01-09T00:20:50.965Z,0
2017-01-09T00:21:50.229Z,0
2017-01-09T00:22:50.927Z,0
2017-01-09T00:23:50.934Z,0
2017-01-09T00:24:50.203Z,0
2017-01-09T00:25:50.653Z,0
2017-01-09T00:26:51.061Z,0
2017-01-09T00:27:52.029Z,0
2017-01-09T00:28:51.271Z,0
2017-01-09T00:29:50.939Z,0
2017-01-09T00:30:50.686Z,0
2017-01-09T00:31:51.141Z,0
2017-01-09T00:32:50.253Z,0
2017-01-09T00:33:49.416Z,0
2017-01-09T00:34:49.478Z,0
2017-01-09T00:35:50.615Z,0
2017-01-09T00:36:50.647Z,0
2017-01-09T00:37:50.783Z,0
2017-01-09T00:38:52.571Z,0
2017-01-09T00:39:50.654Z,0
2017-01-09T00:40:51.912Z,0
2017-01-09T00:41:50.714Z,0
2017-01-09T00:42:50.723Z,0
2017-01-09T00:43:50.337Z,0
2017-01-09T00:44:49.943Z,0
2017-01-09T00:45:51.185Z,0
2017-01-09T00:46:50.006Z,0
2017-01-09T00:47:50.311Z,0
2017-01-09T00:48:49.948Z,0
2017-01-09T00:49:50.870Z,0
2017-01-09T00:50:50.379Z,0
2017-01-09T00:51:52.699Z,0
2017-01-09T00:52:50.794Z,0
2017-01-09T00:53:50.372Z,0
2017-01-09T00:54:51.200Z,0
2017-01-09T00:55:51.253Z,0
2017-01-09T00:56:50.073Z,0
2017-01-09T00:57:50.025Z,0
2017-01-09T00:58:51.932Z,0
2017-01-09T00:59:50.783Z,0
2017-01-09T01:00:51.711Z,0
2017-01-09T01:01:50.007Z,0
2017-01-09T01:02:51.081Z,0
2017-01-09T01:03:51.308Z,0
2017-01-09T01:04:49.635Z,0
2017-01-09T01:05:51.381Z,0
2017-01-09T01:06:50.039Z,0
2017-01-09T01:07:51.145Z,0
2017-01-09T01:08:50.946Z,0
2017-01-09T01:09:50.511Z,0
2017-01-09T01:10:50.565Z,0
2017-01-09T01:11:52.660Z,0
2017-01-09T01:12:50.480Z,0
2017-01-09T01:13:51.941Z,0
2017-01-09T01:14:51.259Z,0
2017-01-09T01:15:50.501Z,0
2017-01-09T01:16:50.657Z,0
2017-01-09T01:17:50.172Z,0
2017-01-09T01:18:50.272Z,0
2017-01-09T01:19:51.368Z,0
2017-01-09T01:20:50.982Z,0
2017-01-09T01:21:51.636Z,0
2017-01-09T01:22:50.748Z,0
2017-01-09T01:23:50.657Z,0
2017-01-09T01:24:52.684Z,0
2017-01-09T01:25:49.775Z,0
2017-01-09T01:26:50.728Z,0
2017-01-09T01:27:50.237Z,0
2017-01-09T01:28:50.991Z,0
2017-01-09T01:29:50.299Z,0
2017-01-09T01:30:50.704Z,0
2017-01-09T01:31:52.153Z,0
2017-01-09T01:32:51.513Z,0
2017-01-09T01:33:51.425Z,0
2017-01-09T01:34:50.677Z,0
2017-01-09T01:35:50.733Z,0
2017-01-09T01:36:50.301Z,0
2017-01-09T01:37:50.752Z,0
2017-01-09T01:38:51.150Z,0
2017-01-09T01:39:50.663Z,0
2017-01-09T01:40:50.328Z,0
2017-01-09T01:41:50.723Z,0
2017-01-09T01:42:52.154Z,0
2017-01-09T01:43:51.087Z,0
2017-01-09T01:44:51.956Z,0
2017-01-09T01:45:50.732Z,0
2017-01-09T01:46:51.106Z,0
2017-01-09T01:47:50.871Z,0
2017-01-09T01:48:50.383Z,0
2017-01-09T01:49:50.379Z,0
2017-01-09T01:50:50.744Z,0
2017-01-09T01:51:50.024Z,0
2017-01-09T01:52:51.247Z,0
2017-01-09T01:53:50.885Z,0
2017-01-09T01:54:51.239Z,0
2017-01-09T01:55:52.717Z,0
2017-01-09T01:56:50.784Z,0
2017-01-09T01:57:52.286Z,0
2017-01-09T01:58:50.101Z,0
2017-01-09T01:59:51.672Z,0
2017-01-09T02:00:50.864Z,0
2017-01-09T02:01:51.261Z,0
2017-01-09T02:02:51.364Z,0
2017-01-09T02:03:50.476Z,0
2017-01-09T02:04:51.283Z,0
2017-01-09T02:05:51.629Z,0
2017-01-09T02:06:51.047Z,0
2017-01-09T02:07:50.556Z,0
2017-01-09T02:08:52.789Z,0
2017-01-09T02:09:50.723Z,0
2017-01-09T02:10:51.327Z,0
2017-01-09T02:11:51.772Z,0
2017-01-09T02:12:51.790Z,0
2017-01-09T02:13:50.256Z,0
2017-01-09T02:14:51.693Z,0
2017-01-09T02:15:51.759Z,0
2017-01-09T02:16:50.624Z,0
2017-01-09T02:17:51.921Z,0
2017-01-09T02:18:51.029Z,0
2017-01-09T02:19:51.802Z,0
2017-01-09T02:20:51.040Z,0
2017-01-09T02:21:51.393Z,0
2017-01-09T02:22:50.960Z,0
2017-01-09T02:23:52.505Z,0
2017-01-09T02:24:50.572Z,0
2017-01-09T02:25:51.079Z,0
2017-01-09T02:26:50.888Z,0
2017-01-09T02:27:51.412Z,0
2017-01-09T02:28:51.008Z,0
2017-01-09T02:29:51.849Z,0
2017-01-09T02:30:51.069Z,0
2017-01-09T02:31:50.624Z,0
2017-01-09T02:32:50.679Z,0
2017-01-09T02:33:51.479Z,0
2017-01-09T02:34:51.486Z,0
2017-01-09T02:35:51.099Z,0
2017-01-09T02:36:50.554Z,0
2017-01-09T02:37:51.458Z,0
2017-01-09T02:38:50.824Z,0
2017-01-09T02:39:51.613Z,0
2017-01-09T02:40:50.781Z,0
2017-01-09T02:41:51.530Z,0
2017-01-09T02:42:50.751Z,0
2017-01-09T02:43:51.198Z,0
2017-01-09T02:44:51.549Z,0
2017-01-09T02:45:51.606Z,0
2017-01-09T02:46:51.215Z,0
2017-01-09T02:47:51.673Z,0
2017-01-09T02:48:52.705Z,0
2017-01-09T02:49:51.680Z,0
2017-01-09T02:50:52.441Z,0
2017-01-09T02:51:51.652Z,0
2017-01-09T02:52:51.364Z,0
2017-01-09T02:53:50.765Z,0
2017-01-09T02:54:51.173Z,0
2017-01-09T02:55:50.879Z,0
2017-01-09T02:56:51.245Z,0
2017-01-09T02:57:51.584Z,0
2017-01-09T02:58:50.803Z,0
2017-01-09T02:59:51.003Z,0
2017-01-09T03:00:51.309Z,0
2017-01-09T03:01:52.268Z,0
2017-01-09T03:02:50.886Z,0
2017-01-09T03:03:51.286Z,0
2017-01-09T03:04:50.841Z,0
2017-01-09T03:05:51.686Z,0
2017-01-09T03:06:51.009Z,0
2017-01-09T03:07:51.705Z,0
2017-01-09T03:08:51.659Z,0
2017-01-09T03:09:51.320Z,0
2017-01-09T03:10:52.435Z,0
2017-01-09T03:11:51.783Z,0
2017-01-09T03:12:51.785Z,0
2017-01-09T03:13:50.606Z,0
2017-01-09T03:14:53.282Z,0
2017-01-09T03:15:51.756Z,0
2017-01-09T03:16:51.516Z,0
2017-01-09T03:17:51.525Z,0
2017-01-09T03:18:51.335Z,0
2017-01-09T03:19:51.887Z,0
2017-01-09T03:20:50.705Z,0
2017-01-09T03:21:51.402Z,0
2017-01-09T03:22:51.855Z,0
2017-01-09T03:23:51.814Z,0
2017-01-09T03:24:50.679Z,0
2017-01-09T03:25:53.298Z,0
2017-01-09T03:26:51.784Z,0
2017-01-09T03:27:52.239Z,0
2017-01-09T03:28:51.947Z,0
2017-01-09T03:29:51.506Z,0
2017-01-09T03:30:51.467Z,0
2017-01-09T03:31:51.823Z,0
2017-01-09T03:32:51.920Z,0
2017-01-09T03:33:51.056Z,0
2017-01-09T03:34:51.983Z,0
2017-01-09T03:35:51.941Z,0
2017-01-09T03:36:53.108Z,0
2017-01-09T03:37:51.859Z,0
2017-01-09T03:38:51.874Z,0
2017-01-09T03:39:52.273Z,0
2017-01-09T03:40:51.589Z,0
2017-01-09T03:41:52.031Z,0
2017-01-09T03:42:52.289Z,0
2017-01-09T03:43:51.205Z,0
2017-01-09T03:44:52.003Z,0
2017-01-09T03:45:51.561Z,0
2017-01-09T03:46:52.017Z,0
2017-01-09T03:47:53.184Z,0
2017-01-09T03:48:50.795Z,0
2017-01-09T03:49:51.705Z,0
2017-01-09T03:50:51.718Z,0
2017-01-09T03:51:52.346Z,0
2017-01-09T03:52:52.011Z,0
2017-01-09T03:53:51.220Z,0
2017-01-09T03:54:51.231Z,0
2017-01-09T03:55:51.288Z,0
2017-01-09T03:56:51.344Z,0
2017-01-09T03:57:51.303Z,0
2017-01-09T03:58:50.869Z,0
2017-01-09T03:59:52.065Z,0
2017-01-09T04:00:52.512Z,0
2017-01-09T04:01:51.286Z,0
2017-01-09T04:02:52.081Z,0
2017-01-09T04:03:51.738Z,0
2017-01-09T04:04:51.802Z,0
2017-01-09T04:05:52.543Z,0
2017-01-09T04:06:52.453Z,0
2017-01-09T04:07:51.319Z,0
2017-01-09T04:08:51.374Z,0
2017-01-09T04:09:52.879Z,0
2017-01-09T04:10:51.339Z,0
2017-01-09T04:11:54.211Z,0
2017-01-09T04:12:52.545Z,0
2017-01-09T04:13:52.101Z,0
2017-01-09T04:14:51.768Z,0
2017-01-09T04:15:52.265Z,0
2017-01-09T04:16:51.461Z,0
2017-01-09T04:17:51.883Z,0
2017-01-09T04:18:51.795Z,0
2017-01-09T04:19:52.242Z,0
2017-01-09T04:20:52.205Z,0
2017-01-09T04:21:52.207Z,0
2017-01-09T04:22:51.871Z,0
2017-01-09T04:23:51.483Z,0
2017-01-09T04:24:52.733Z,0
2017-01-09T04:25:51.989Z,0
2017-01-09T04:26:51.100Z,0
2017-01-09T04:27:53.047Z,0
2017-01-09T04:28:51.858Z,0
2017-01-09T04:29:51.476Z,0
2017-01-09T04:30:52.662Z,0
2017-01-09T04:31:52.056Z,0
2017-01-09T04:32:52.284Z,0
2017-01-09T04:33:53.887Z,0
2017-01-09T04:34:52.740Z,0
2017-01-09T04:35:52.256Z,0
2017-01-09T04:36:51.961Z,0
2017-01-09T04:37:51.654Z,0
2017-01-09T04:38:51.877Z,0
2017-01-09T04:39:51.980Z,0
2017-01-09T04:40:51.543Z,0
2017-01-09T04:41:51.551Z,0
2017-01-09T04:42:52.349Z,0
2017-01-09T04:43:52.506Z,0
2017-01-09T04:44:53.713Z,0
2017-01-09T04:45:52.865Z,0
2017-01-09T04:46:52.681Z,0
2017-01-09T04:47:52.039Z,0
2017-01-09T04:48:51.599Z,0
2017-01-09T04:49:52.101Z,0
2017-01-09T04:50:52.373Z,0
2017-01-09T04:51:52.434Z,0
2017-01-09T04:52:52.174Z,0
2017-01-09T04:53:51.630Z,0
2017-01-09T04:54:52.386Z,0
2017-01-09T04:55:53.837Z,0
2017-01-09T04:56:52.494Z,0
2017-01-09T04:57:52.860Z,0
2017-01-09T04:59:07.339Z,0
2017-01-09T04:59:52.513Z,0
2017-01-09T05:00:52.473Z,0
2017-01-09T05:01:52.030Z,0
2017-01-09T05:02:52.537Z,0
2017-01-09T05:03:52.491Z,0
2017-01-09T05:04:52.498Z,0
2017-01-09T05:05:52.503Z,0
2017-01-09T05:06:53.758Z,0
2017-01-09T05:07:52.517Z,0
2017-01-09T05:08:52.631Z,0
2017-01-09T05:09:52.531Z,0
2017-01-09T05:10:51.748Z,0
2017-01-09T05:11:52.591Z,0
2017-01-09T05:12:51.857Z,0
2017-01-09T05:13:52.166Z,0
2017-01-09T05:14:52.611Z,0
2017-01-09T05:15:51.781Z,0
2017-01-09T05:16:51.835Z,0
2017-01-09T05:17:53.442Z,0
2017-01-09T05:18:52.943Z,0
2017-01-09T05:19:52.799Z,0
2017-01-09T05:20:52.304Z,0
2017-01-09T05:21:53.603Z,0
2017-01-09T05:22:52.223Z,0
2017-01-09T05:23:52.279Z,0
2017-01-09T05:24:53.028Z,0
2017-01-09T05:25:52.689Z,0
2017-01-09T05:26:51.900Z,0
2017-01-09T05:27:52.699Z,0
2017-01-09T05:28:53.330Z,0
2017-01-09T05:29:52.266Z,0
2017-01-09T05:30:52.631Z,0
2017-01-09T05:31:52.237Z,0
2017-01-09T05:32:54.038Z,0
2017-01-09T05:33:52.707Z,0
2017-01-09T05:34:52.699Z,0
2017-01-09T05:35:51.912Z,0
2017-01-09T05:36:52.711Z,0
2017-01-09T05:37:51.978Z,0
2017-01-09T05:38:51.934Z,0
2017-01-09T05:39:53.433Z,0
2017-01-09T05:40:52.789Z,0
2017-01-09T05:41:53.258Z,0
2017-01-09T05:42:53.100Z,0
2017-01-09T05:43:53.425Z,0
2017-01-09T05:44:52.423Z,0
2017-01-09T05:45:52.824Z,0
2017-01-09T05:46:52.761Z,0
2017-01-09T05:47:52.489Z,0
2017-01-09T05:48:52.344Z,0
2017-01-09T05:49:52.407Z,0
2017-01-09T05:50:52.905Z,0
2017-01-09T05:51:52.423Z,0
2017-01-09T05:52:54.398Z,0
2017-01-09T05:53:52.379Z,0
2017-01-09T05:54:53.687Z,0
2017-01-09T05:55:52.892Z,0
2017-01-09T05:56:52.553Z,0
2017-01-09T05:57:52.423Z,0
2017-01-09T05:58:52.874Z,0
2017-01-09T05:59:52.522Z,0
2017-01-09T06:00:53.379Z,0
2017-01-09T06:01:53.029Z,0
2017-01-09T06:02:52.141Z,0
2017-01-09T06:03:54.865Z,0
2017-01-09T06:04:52.056Z,0
2017-01-09T06:05:53.714Z,0
2017-01-09T06:06:51.775Z,0
2017-01-09T06:07:52.885Z,0
2017-01-09T06:08:52.532Z,0
2017-01-09T06:09:52.586Z,0
2017-01-09T06:10:53.393Z,0
2017-01-09T06:11:53.061Z,0
2017-01-09T06:12:52.267Z,0
2017-01-09T06:13:52.567Z,0
2017-01-09T06:14:52.726Z,0
2017-01-09T06:15:52.923Z,0
2017-01-09T06:16:53.985Z,0
2017-01-09T06:17:52.546Z,0
2017-01-09T06:18:52.997Z,0
2017-01-09T06:19:53.100Z,0
2017-01-09T06:20:52.711Z,0
2017-01-09T06:21:53.075Z,0
2017-01-09T06:22:52.974Z,0
2017-01-09T06:23:52.990Z,0
2017-01-09T06:24:53.529Z,0
2017-01-09T06:25:53.489Z,0
2017-01-09T06:26:53.045Z,0
2017-01-09T06:27:53.864Z,0
2017-01-09T06:28:52.615Z,0
2017-01-09T06:29:53.132Z,0
2017-01-09T06:30:53.025Z,0
2017-01-09T06:31:52.292Z,0
2017-01-09T06:32:53.087Z,0
2017-01-09T06:33:53.246Z,0
2017-01-09T06:34:52.759Z,0
2017-01-09T06:35:52.765Z,0
2017-01-09T06:36:53.168Z,0
2017-01-09T06:37:53.373Z,0
2017-01-09T06:38:54.547Z,0
2017-01-09T06:39:53.232Z,0
2017-01-09T06:40:52.850Z,0
2017-01-09T06:41:53.546Z,0
2017-01-09T06:42:53.154Z,0
2017-01-09T06:43:52.712Z,0
2017-01-09T06:44:53.124Z,0
2017-01-09T06:45:53.178Z,0
2017-01-09T06:46:52.788Z,0
2017-01-09T06:47:52.748Z,0
2017-01-09T06:48:52.550Z,0
2017-01-09T06:49:54.153Z,0
2017-01-09T06:50:52.913Z,0
2017-01-09T06:51:53.220Z,0
2017-01-09T06:52:52.381Z,0
2017-01-09T06:53:54.590Z,0
2017-01-09T06:54:53.345Z,0
2017-01-09T06:55:52.946Z,0
2017-01-09T06:56:52.118Z,0
2017-01-09T06:57:53.209Z,0
2017-01-09T06:58:53.215Z,0
2017-01-09T06:59:52.527Z,0
2017-01-09T07:00:53.836Z,0
2017-01-09T07:01:52.886Z,0
2017-01-09T07:02:53.338Z,0
2017-01-09T07:03:52.958Z,0
2017-01-09T07:04:53.819Z,0
2017-01-09T07:05:53.410Z,0
2017-01-09T07:06:53.264Z,0
2017-01-09T07:07:53.323Z,0
2017-01-09T07:08:53.302Z,0
2017-01-09T07:09:52.598Z,0
2017-01-09T07:10:53.049Z,0
2017-01-09T07:11:53.959Z,0
2017-01-09T07:12:53.411Z,0
2017-01-09T07:13:53.220Z,0
2017-01-09T07:14:53.027Z,0
2017-01-09T07:15:54.478Z,0
2017-01-09T07:16:53.386Z,0
2017-01-09T07:17:52.990Z,0
2017-01-09T07:18:53.010Z,0
2017-01-09T07:19:53.903Z,0
2017-01-09T07:20:53.068Z,0
2017-01-09T07:21:53.021Z,0
2017-01-09T07:22:53.637Z,0
2017-01-09T07:23:53.285Z,0
2017-01-09T07:24:53.096Z,0
2017-01-09T07:25:53.059Z,0
2017-01-09T07:26:54.056Z,0
2017-01-09T07:27:53.867Z,0
2017-01-09T07:28:54.392Z,0
2017-01-09T07:29:52.734Z,0
2017-01-09T07:30:53.529Z,0
2017-01-09T07:31:53.203Z,0
2017-01-09T07:32:53.049Z,0
2017-01-09T07:33:53.551Z,0
2017-01-09T07:34:53.210Z,0
2017-01-09T07:35:53.521Z,0
2017-01-09T07:36:54.019Z,0
2017-01-09T07:37:54.728Z,0
2017-01-09T07:38:52.740Z,0
2017-01-09T07:39:53.593Z,0
2017-01-09T07:40:53.999Z,0
2017-01-09T07:41:52.813Z,0
2017-01-09T07:42:52.824Z,0
2017-01-09T07:43:53.175Z,0
2017-01-09T07:44:52.881Z,0
2017-01-09T07:45:53.582Z,0
2017-01-09T07:46:52.798Z,0
2017-01-09T07:47:53.250Z,0
2017-01-09T07:48:54.505Z,0
2017-01-09T07:49:53.728Z,0
2017-01-09T07:50:53.327Z,0
2017-01-09T07:51:53.630Z,0
2017-01-09T07:52:54.077Z,0
2017-01-09T07:53:54.034Z,0
2017-01-09T07:54:53.302Z,0
2017-01-09T07:55:53.307Z,0
2017-01-09T07:56:53.220Z,0
2017-01-09T07:57:52.927Z,0
2017-01-09T07:58:54.072Z,0
2017-01-09T07:59:54.881Z,0
2017-01-09T08:00:53.690Z,0
2017-01-09T08:01:53.406Z,0
2017-01-09T08:02:53.709Z,0
2017-01-09T08:03:53.418Z,0
2017-01-09T08:04:53.322Z,0
2017-01-09T08:05:52.890Z,0
2017-01-09T08:06:52.941Z,0
2017-01-09T08:07:54.192Z,0
2017-01-09T08:08:53.009Z,0
2017-01-09T08:09:53.417Z,0
2017-01-09T08:10:54.467Z,0
2017-01-09T08:11:53.377Z,0
2017-01-09T08:12:53.187Z,0
2017-01-09T08:13:53.792Z,0
2017-01-09T08:14:53.454Z,5
2017-01-09T08:15:53.114Z,5
2017-01-09T08:16:53.914Z,5
2017-01-09T08:17:54.269Z,5
2017-01-09T08:18:53.436Z,5
2017-01-09T08:19:54.230Z,5
2017-01-09T08:20:53.847Z,5
2017-01-09T08:21:54.497Z,5
2017-01-09T08:22:53.064Z,5
2017-01-09T08:23:53.249Z,5
2017-01-09T08:24:53.476Z,5
2017-01-09T08:25:53.976Z,5
2017-01-09T08:26:53.835Z,5
2017-01-09T08:27:53.498Z,5
2017-01-09T08:29:08.782Z,5
2017-01-09T08:29:53.987Z,5
2017-01-09T08:30:53.137Z,5
2017-01-09T08:31:53.133Z,5
2017-01-09T08:32:53.841Z,5
2017-01-09T08:33:52.865Z,5
2017-01-09T08:34:55.567Z,5
2017-01-09T08:35:54.355Z,5
2017-01-09T08:36:54.368Z,5
2017-01-09T08:37:53.627Z,5
2017-01-09T08:38:53.686Z,5
2017-01-09T08:39:54.039Z,5
2017-01-09T08:40:54.339Z,5
2017-01-09T08:41:53.703Z,5
2017-01-09T08:42:53.915Z,5
2017-01-09T08:43:54.467Z,5
2017-01-09T08:44:54.076Z,5
2017-01-09T08:45:55.400Z,5
2017-01-09T08:46:54.543Z,5
2017-01-09T08:47:53.959Z,5
2017-01-09T08:48:53.664Z,5
2017-01-09T08:49:53.667Z,5
2017-01-09T08:50:53.384Z,5
2017-01-09T08:51:53.238Z,5
2017-01-09T08:52:53.645Z,5
2017-01-09T08:53:53.362Z,5
2017-01-09T08:54:53.759Z,5
2017-01-09T08:55:53.716Z,5
2017-01-09T08:56:55.175Z,5
2017-01-09T08:57:53.293Z,5
2017-01-09T08:58:53.939Z,5
2017-01-09T08:59:54.564Z,5
2017-01-09T09:00:53.316Z,5
2017-01-09T09:01:53.020Z,5
2017-01-09T09:02:54.267Z,5
2017-01-09T09:03:54.126Z,5
2017-01-09T09:04:53.841Z,5
2017-01-09T09:05:53.844Z,5
2017-01-09T09:06:54.150Z,5
2017-01-09T09:07:54.869Z,5
2017-01-09T09:08:54.758Z,5
2017-01-09T09:09:53.826Z,5
2017-01-09T09:10:53.892Z,5
2017-01-09T09:11:53.399Z,5
2017-01-09T09:12:54.544Z,5
2017-01-09T09:13:54.206Z,5
2017-01-09T09:14:53.916Z,5
2017-01-09T09:15:54.271Z,5
2017-01-09T09:16:53.907Z,5
2017-01-09T09:17:54.390Z,5
2017-01-09T09:18:54.398Z,5
2017-01-09T09:19:54.354Z,5
2017-01-09T09:20:54.309Z,5
2017-01-09T09:21:53.925Z,5
2017-01-09T09:22:53.932Z,5
2017-01-09T09:23:53.643Z,10
2017-01-09T09:24:54.892Z,10
2017-01-09T09:25:54.709Z,10
2017-01-09T09:26:54.854Z,10
2017-01-09T09:27:53.580Z,10
2017-01-09T09:28:54.426Z,10
2017-01-09T09:29:54.532Z,10
2017-01-09T09:30:54.442Z,10
2017-01-09T09:31:56.177Z,10
2017-01-09T09:32:54.503Z,10
2017-01-09T09:33:55.008Z,10
2017-01-09T09:34:54.813Z,10
2017-01-09T09:35:53.688Z,10
2017-01-09T09:36:54.484Z,10
2017-01-09T09:37:53.659Z,10
2017-01-09T09:38:54.401Z,10
2017-01-09T09:39:54.408Z,10
2017-01-09T09:40:54.622Z,5
2017-01-09T09:41:54.124Z,5
2017-01-09T09:42:54.189Z,5
2017-01-09T09:43:53.707Z,5
2017-01-09T09:44:55.103Z,10
2017-01-09T09:45:54.223Z,10
2017-01-09T09:46:54.565Z,10
2017-01-09T09:47:54.928Z,10
2017-01-09T09:48:54.527Z,10
2017-01-09T09:49:54.686Z,10
2017-01-09T09:50:54.894Z,10
2017-01-09T09:51:54.651Z,10
2017-01-09T09:52:54.715Z,15
2017-01-09T09:53:56.135Z,15
2017-01-09T09:54:54.532Z,10
2017-01-09T09:55:54.703Z,15
2017-01-09T09:56:54.198Z,15
2017-01-09T09:57:53.879Z,15
2017-01-09T09:58:54.261Z,15
2017-01-09T09:59:53.822Z,15
2017-01-09T10:00:54.720Z,20
2017-01-09T10:01:55.082Z,20
2017-01-09T10:02:54.643Z,20
2017-01-09T10:03:55.094Z,20
2017-01-09T10:04:56.196Z,20
2017-01-09T10:05:53.879Z,25
2017-01-09T10:06:54.985Z,25
2017-01-09T10:07:54.239Z,25
2017-01-09T10:08:54.495Z,30
2017-01-09T10:09:54.647Z,30
2017-01-09T10:10:54.776Z,30
2017-01-09T10:11:53.575Z,30
2017-01-09T10:12:55.216Z,25
2017-01-09T10:13:53.888Z,25
2017-01-09T10:14:54.737Z,25
2017-01-09T10:15:55.697Z,30
2017-01-09T10:16:54.357Z,35
2017-01-09T10:17:54.415Z,40
2017-01-09T10:18:54.820Z,40
2017-01-09T10:19:54.380Z,40
2017-01-09T10:20:54.389Z,45
2017-01-09T10:21:54.447Z,50
2017-01-09T10:22:54.826Z,50
2017-01-09T10:23:54.464Z,45
2017-01-09T10:24:54.469Z,40
2017-01-09T10:25:54.875Z,35
2017-01-09T10:26:55.389Z,40
2017-01-09T10:27:54.791Z,35
2017-01-09T10:28:54.758Z,40
2017-01-09T10:29:55.304Z,45
2017-01-09T10:30:56.120Z,40
2017-01-09T10:31:54.081Z,35
2017-01-09T10:32:55.376Z,40
2017-01-09T10:33:54.945Z,35
2017-01-09T10:34:55.296Z,35
2017-01-09T10:35:54.169Z,30
2017-01-09T10:36:54.520Z,30
2017-01-09T10:37:55.868Z,30
2017-01-09T10:38:54.932Z,25
2017-01-09T10:39:54.594Z,25
2017-01-09T10:40:54.596Z,30
2017-01-09T10:41:55.658Z,30
2017-01-09T10:42:54.615Z,30
2017-01-09T10:43:55.018Z,30
2017-01-09T10:44:55.374Z,35
2017-01-09T10:45:54.147Z,35
2017-01-09T10:46:55.047Z,30
2017-01-09T10:47:55.050Z,35
2017-01-09T10:48:55.062Z,35
2017-01-09T10:49:54.674Z,40
2017-01-09T10:50:54.631Z,45
2017-01-09T10:51:55.084Z,45
2017-01-09T10:52:55.950Z,50
2017-01-09T10:53:54.307Z,50
2017-01-09T10:54:55.454Z,45
2017-01-09T10:55:54.626Z,50
2017-01-09T10:56:55.569Z,50
2017-01-09T10:57:55.143Z,50
2017-01-09T10:58:54.365Z,45
2017-01-09T10:59:55.453Z,45
2017-01-09T11:00:54.708Z,40
2017-01-09T11:01:55.122Z,40
2017-01-09T11:02:53.886Z,40
2017-01-09T11:03:55.640Z,40
2017-01-09T11:04:54.502Z,40
2017-01-09T11:05:54.798Z,40
2017-01-09T11:06:55.207Z,40
2017-01-09T11:07:55.111Z,40
2017-01-09T11:08:54.826Z,40
2017-01-09T11:09:54.839Z,40
2017-01-09T11:10:55.243Z,40
2017-01-09T11:11:54.453Z,40
2017-01-09T11:12:54.461Z,40
2017-01-09T11:13:54.815Z,40
2017-01-09T11:14:55.972Z,45
2017-01-09T11:15:55.574Z,45
2017-01-09T11:16:54.840Z,45
2017-01-09T11:17:55.247Z,40
2017-01-09T11:18:54.167Z,40
2017-01-09T11:19:54.923Z,35
2017-01-09T11:20:54.526Z,30
2017-01-09T11:21:55.278Z,30
2017-01-09T11:22:55.321Z,25
2017-01-09T11:23:55.873Z,25
2017-01-09T11:24:55.001Z,25
2017-01-09T11:25:56.010Z,20
2017-01-09T11:26:54.919Z,20
2017-01-09T11:27:54.789Z,20
2017-01-09T11:28:54.892Z,15
2017-01-09T11:29:54.946Z,15
2017-01-09T11:30:55.402Z,15
2017-01-09T11:31:55.804Z,15
2017-01-09T11:32:54.571Z,20
2017-01-09T11:33:55.720Z,20
2017-01-09T11:34:54.640Z,20
2017-01-09T11:35:55.044Z,20
2017-01-09T11:36:55.849Z,25
2017-01-09T11:37:55.057Z,30
2017-01-09T11:38:57.254Z,35
2017-01-09T11:39:55.024Z,40
2017-01-09T11:40:55.086Z,45
2017-01-09T11:41:55.393Z,45
2017-01-09T11:42:55.447Z,45
2017-01-09T11:43:55.565Z,45
2017-01-09T11:44:55.458Z,40
2017-01-09T11:45:55.571Z,35
2017-01-09T11:46:55.036Z,35
2017-01-09T11:47:55.716Z,35
2017-01-09T11:48:55.094Z,35
2017-01-09T11:49:54.710Z,30
2017-01-09T11:50:55.569Z,30
2017-01-09T11:51:55.971Z,30
2017-01-09T11:52:54.731Z,30
2017-01-09T11:53:55.205Z,25
2017-01-09T11:54:54.801Z,25
2017-01-09T11:55:55.652Z,25
2017-01-09T11:56:56.005Z,20
2017-01-09T11:57:54.822Z,20
2017-01-09T11:58:55.329Z,15
2017-01-09T11:59:54.740Z,15
2017-01-09T12:00:56.942Z,15
2017-01-09T12:01:55.596Z,15
2017-01-09T12:02:55.606Z,15
2017-01-09T12:03:54.921Z,15
2017-01-09T12:04:56.016Z,15
2017-01-09T12:05:55.235Z,15
2017-01-09T12:06:55.314Z,15
2017-01-09T12:07:56.135Z,15
2017-01-09T12:08:55.206Z,20
2017-01-09T12:09:55.609Z,20
2017-01-09T12:10:54.973Z,20
2017-01-09T12:11:56.553Z,20
2017-01-09T12:12:55.680Z,20
2017-01-09T12:13:55.606Z,20
2017-01-09T12:14:54.903Z,20
2017-01-09T12:15:55.804Z,20
2017-01-09T12:16:55.419Z,20
2017-01-09T12:17:56.167Z,20
2017-01-09T12:18:55.345Z,20
2017-01-09T12:19:55.340Z,15
2017-01-09T12:20:55.742Z,15
2017-01-09T12:21:55.751Z,15
2017-01-09T12:22:56.516Z,15
2017-01-09T12:23:55.821Z,15
2017-01-09T12:24:55.036Z,15
2017-01-09T12:25:55.437Z,10
2017-01-09T12:26:54.556Z,10
2017-01-09T12:27:55.451Z,10
2017-01-09T12:28:55.857Z,10
2017-01-09T12:29:55.814Z,15
2017-01-09T12:30:55.429Z,10
2017-01-09T12:31:55.388Z,10
2017-01-09T12:32:55.222Z,10
2017-01-09T12:33:56.798Z,10
2017-01-09T12:34:55.952Z,10
2017-01-09T12:35:55.514Z,10
2017-01-09T12:36:55.034Z,10
2017-01-09T12:37:55.472Z,10
2017-01-09T12:38:55.884Z,10
2017-01-09T12:39:55.947Z,10
2017-01-09T12:40:55.949Z,10
2017-01-09T12:41:55.909Z,15
2017-01-09T12:42:55.176Z,15
2017-01-09T12:43:55.925Z,20
2017-01-09T12:44:55.544Z,20
2017-01-09T12:45:55.571Z,20
2017-01-09T12:46:57.773Z,20
2017-01-09T12:47:55.958Z,20
2017-01-09T12:48:56.175Z,25
2017-01-09T12:49:55.970Z,25
2017-01-09T12:50:55.196Z,25
2017-01-09T12:51:55.987Z,25
2017-01-09T12:52:55.652Z,25
2017-01-09T12:53:56.002Z,25
2017-01-09T12:54:55.665Z,25
2017-01-09T12:55:56.169Z,25
2017-01-09T12:56:56.078Z,25
2017-01-09T12:57:55.996Z,25
2017-01-09T12:58:56.492Z,25
2017-01-09T12:59:56.652Z,25
2017-01-09T13:00:55.667Z,25
2017-01-09T13:01:55.674Z,25
2017-01-09T13:02:55.264Z,25
2017-01-09T13:03:56.486Z,25
2017-01-09T13:04:55.700Z,25
2017-01-09T13:05:56.152Z,25
2017-01-09T13:06:56.174Z,20
2017-01-09T13:07:55.767Z,20
2017-01-09T13:08:55.905Z,20
2017-01-09T13:09:56.186Z,20
2017-01-09T13:10:56.586Z,20
2017-01-09T13:11:55.325Z,20
2017-01-09T13:12:55.711Z,20
2017-01-09T13:13:55.124Z,20
2017-01-09T13:14:56.273Z,20
2017-01-09T13:15:55.835Z,20
2017-01-09T13:16:56.635Z,20
2017-01-09T13:17:56.252Z,20
2017-01-09T13:18:55.858Z,20
2017-01-09T13:19:57.618Z,15
2017-01-09T13:20:56.268Z,15
2017-01-09T13:21:56.425Z,15
2017-01-09T13:22:56.192Z,15
2017-01-09T13:23:56.348Z,15
2017-01-09T13:24:56.274Z,15
2017-01-09T13:25:55.516Z,15
2017-01-09T13:26:56.323Z,15
2017-01-09T13:27:55.487Z,15
2017-01-09T13:28:56.388Z,15
2017-01-09T13:29:55.602Z,15
2017-01-09T13:30:57.213Z,15
2017-01-09T13:31:56.313Z,15
2017-01-09T13:32:56.760Z,15
2017-01-09T13:33:55.979Z,15
2017-01-09T13:34:57.528Z,20
2017-01-09T13:35:56.294Z,20
2017-01-09T13:36:55.949Z,20
2017-01-09T13:37:56.309Z,20
2017-01-09T13:38:56.416Z,20
2017-01-09T13:39:56.874Z,20
2017-01-09T13:40:55.991Z,20
2017-01-09T13:41:56.939Z,20
2017-01-09T13:42:56.104Z,20
2017-01-09T13:43:56.851Z,20
2017-01-09T13:44:56.067Z,20
2017-01-09T13:45:57.466Z,20
2017-01-09T13:46:55.634Z,25
2017-01-09T13:47:55.195Z,25
2017-01-09T13:48:56.167Z,25
2017-01-09T13:49:56.453Z,25
2017-01-09T13:50:56.506Z,25
2017-01-09T13:51:56.620Z,25
2017-01-09T13:52:55.934Z,20
2017-01-09T13:53:56.184Z,20
2017-01-09T13:54:58.321Z,20
2017-01-09T13:55:56.500Z,20
2017-01-09T13:56:57.183Z,20
2017-01-09T13:57:56.170Z,20
2017-01-09T13:58:56.574Z,20
2017-01-09T13:59:56.580Z,15
2017-01-09T14:00:56.544Z,15
2017-01-09T14:01:56.249Z,15
2017-01-09T14:02:55.759Z,15
2017-01-09T14:03:56.866Z,15
2017-01-09T14:04:56.224Z,15
2017-01-09T14:05:57.762Z,20
2017-01-09T14:06:56.236Z,20
2017-01-09T14:07:56.858Z,20
2017-01-09T14:08:56.626Z,20
2017-01-09T14:09:56.908Z,20
2017-01-09T14:10:56.683Z,20
2017-01-09T14:11:56.728Z,20
2017-01-09T14:12:57.076Z,20
2017-01-09T14:13:56.741Z,20
2017-01-09T14:14:56.280Z,20
2017-01-09T14:15:56.317Z,20
2017-01-09T14:16:58.131Z,20
2017-01-09T14:17:56.726Z,20
2017-01-09T14:18:56.445Z,20
2017-01-09T14:19:56.299Z,20
2017-01-09T14:20:55.901Z,20
2017-01-09T14:21:56.358Z,15
2017-01-09T14:22:56.720Z,15
2017-01-09T14:23:56.428Z,15
2017-01-09T14:24:56.285Z,15
2017-01-09T14:25:56.857Z,15
2017-01-09T14:26:56.403Z,15
2017-01-09T14:27:56.907Z,15
2017-01-09T14:28:56.862Z,10
2017-01-09T14:29:57.116Z,10
2017-01-09T14:30:56.778Z,10
2017-01-09T14:31:57.748Z,10
2017-01-09T14:32:56.502Z,10
2017-01-09T14:33:56.904Z,10
2017-01-09T14:34:56.878Z,10
2017-01-09T14:35:56.419Z,10